sensor_id;sensor_type;location;lat;lon;timestamp;pressure;altitude;pressure_sealevel;temperature;humidity
23953;BME280;12163;49.316;6.092;2023-04-22T00:02:00;98575.91;;;12.43;70.82
23953;BME280;12163;49.316;6.092;2023-04-22T00:04:27;98571.75;;;12.37;70.48
23953;BME280;12163;49.316;6.092;2023-04-22T00:06:54;98568.75;;;12.30;70.33
23953;BME280;12163;49.316;6.092;2023-04-22T00:09:22;98570.03;;;12.24;71.13
23953;BME280;12163;49.316;6.092;2023-04-22T00:11:49;98568.56;;;12.18;70.72
23953;BME280;12163;49.316;6.092;2023-04-22T00:14:15;98568.28;;;12.11;70.86
23953;BME280;12163;49.316;6.092;2023-04-22T00:16:42;98566.38;;;12.03;71.30
23953;BME280;12163;49.316;6.092;2023-04-22T00:19:09;98563.66;;;11.95;71.29
23953;BME280;12163;49.316;6.092;2023-04-22T00:21:35;98564.13;;;11.88;71.76
23953;BME280;12163;49.316;6.092;2023-04-22T00:24:02;98568.09;;;11.82;72.03
23953;BME280;12163;49.316;6.092;2023-04-22T00:26:28;98559.03;;;11.78;72.65
23953;BME280;12163;49.316;6.092;2023-04-22T00:28:56;98554.88;;;11.73;72.65
23953;BME280;12163;49.316;6.092;2023-04-22T00:31:22;98554.75;;;11.69;72.79
23953;BME280;12163;49.316;6.092;2023-04-22T00:33:49;98552.50;;;11.63;73.31
23953;BME280;12163;49.316;6.092;2023-04-22T00:36:15;98551.06;;;11.57;72.57
23953;BME280;12163;49.316;6.092;2023-04-22T00:38:47;98554.50;;;11.49;73.54
23953;BME280;12163;49.316;6.092;2023-04-22T00:41:15;98551.16;;;11.43;73.33
23953;BME280;12163;49.316;6.092;2023-04-22T00:43:42;98557.16;;;11.40;73.97
23953;BME280;12163;49.316;6.092;2023-04-22T00:46:09;98562.41;;;11.37;73.65
23953;BME280;12163;49.316;6.092;2023-04-22T00:48:39;98558.25;;;11.31;74.37
23953;BME280;12163;49.316;6.092;2023-04-22T00:51:06;98556.66;;;11.30;73.83
23953;BME280;12163;49.316;6.092;2023-04-22T00:53:33;98555.69;;;11.26;73.97
23953;BME280;12163;49.316;6.092;2023-04-22T00:55:59;98559.03;;;11.23;74.94
23953;BME280;12163;49.316;6.092;2023-04-22T00:58:28;98560.78;;;11.19;74.59
23953;BME280;12163;49.316;6.092;2023-04-22T01:00:55;98556.78;;;11.16;75.13
23953;BME280;12163;49.316;6.092;2023-04-22T01:03:22;98560.91;;;11.14;74.41
23953;BME280;12163;49.316;6.092;2023-04-22T01:05:49;98561.22;;;11.12;75.22
23953;BME280;12163;49.316;6.092;2023-04-22T01:08:16;98558.34;;;11.09;75.40
23953;BME280;12163;49.316;6.092;2023-04-22T01:10:43;98548.63;;;11.08;75.60
23953;BME280;12163;49.316;6.092;2023-04-22T01:13:09;98544.69;;;11.05;75.23
23953;BME280;12163;49.316;6.092;2023-04-22T01:15:36;98554.50;;;11.01;75.15
23953;BME280;12163;49.316;6.092;2023-04-22T01:18:03;98553.22;;;10.99;75.20
23953;BME280;12163;49.316;6.092;2023-04-22T01:20:30;98552.25;;;10.95;75.35
23953;BME280;12163;49.316;6.092;2023-04-22T01:22:57;98553.00;;;10.87;75.60
23953;BME280;12163;49.316;6.092;2023-04-22T01:25:28;98552.03;;;10.83;75.56
23953;BME280;12163;49.316;6.092;2023-04-22T01:27:55;98552.16;;;10.78;76.24
23953;BME280;12163;49.316;6.092;2023-04-22T01:30:22;98555.00;;;10.73;76.48
23953;BME280;12163;49.316;6.092;2023-04-22T01:32:49;98554.53;;;10.71;76.73
23953;BME280;12163;49.316;6.092;2023-04-22T01:35:16;98552.94;;;10.70;76.52
23953;BME280;12163;49.316;6.092;2023-04-22T01:37:42;98559.44;;;10.69;77.20
23953;BME280;12163;49.316;6.092;2023-04-22T01:40:10;98558.16;;;10.66;76.74
23953;BME280;12163;49.316;6.092;2023-04-22T01:42:37;98562.25;;;10.64;76.77
23953;BME280;12163;49.316;6.092;2023-04-22T01:45:04;98563.34;;;10.63;77.20
23953;BME280;12163;49.316;6.092;2023-04-22T01:47:31;98561.75;;;10.62;77.19
23953;BME280;12163;49.316;6.092;2023-04-22T01:49:57;98573.16;;;10.59;77.12
23953;BME280;12163;49.316;6.092;2023-04-22T01:52:26;98570.78;;;10.57;77.74
23953;BME280;12163;49.316;6.092;2023-04-22T01:54:53;98572.19;;;10.55;77.28
23953;BME280;12163;49.316;6.092;2023-04-22T01:57:20;98579.00;;;10.52;77.27
23953;BME280;12163;49.316;6.092;2023-04-22T01:59:46;98573.91;;;10.51;77.62
23953;BME280;12163;49.316;6.092;2023-04-22T02:02:13;98579.00;;;10.52;77.72
23953;BME280;12163;49.316;6.092;2023-04-22T02:04:40;98574.41;;;10.53;78.05
23953;BME280;12163;49.316;6.092;2023-04-22T02:07:06;98577.59;;;10.55;77.69
23953;BME280;12163;49.316;6.092;2023-04-22T02:09:33;98576.19;;;10.57;78.04
23953;BME280;12163;49.316;6.092;2023-04-22T02:12:00;98567.78;;;10.59;77.85
23953;BME280;12163;49.316;6.092;2023-04-22T02:14:26;98568.25;;;10.61;77.81
23953;BME280;12163;49.316;6.092;2023-04-22T02:16:53;98562.56;;;10.62;77.82
23953;BME280;12163;49.316;6.092;2023-04-22T02:19:20;98574.63;;;10.65;78.36
23953;BME280;12163;49.316;6.092;2023-04-22T02:21:46;98569.91;;;10.70;78.32
23953;BME280;12163;49.316;6.092;2023-04-22T02:24:13;98577.69;;;10.72;77.91
23953;BME280;12163;49.316;6.092;2023-04-22T02:26:39;98568.50;;;10.73;78.23
23953;BME280;12163;49.316;6.092;2023-04-22T02:29:06;98578.97;;;10.74;77.96
23953;BME280;12163;49.316;6.092;2023-04-22T02:31:33;98577.56;;;10.77;78.38
23953;BME280;12163;49.316;6.092;2023-04-22T02:33:59;98578.06;;;10.79;77.90
23953;BME280;12163;49.316;6.092;2023-04-22T02:36:26;98579.63;;;10.80;78.33
23953;BME280;12163;49.316;6.092;2023-04-22T02:38:54;98578.06;;;10.79;78.31
23953;BME280;12163;49.316;6.092;2023-04-22T02:41:20;98568.84;;;10.80;77.99
23953;BME280;12163;49.316;6.092;2023-04-22T02:43:47;98563.63;;;10.83;78.76
23953;BME280;12163;49.316;6.092;2023-04-22T02:46:14;98557.91;;;10.85;78.19
23953;BME280;12163;49.316;6.092;2023-04-22T02:48:44;98561.41;;;10.85;77.79
23953;BME280;12163;49.316;6.092;2023-04-22T02:51:10;98564.41;;;10.84;77.93
23953;BME280;12163;49.316;6.092;2023-04-22T02:53:37;98562.03;;;10.82;77.95
23953;BME280;12163;49.316;6.092;2023-04-22T02:56:04;98558.06;;;10.80;77.58
23953;BME280;12163;49.316;6.092;2023-04-22T02:58:31;98550.28;;;10.78;77.75
23953;BME280;12163;49.316;6.092;2023-04-22T03:00:57;98545.19;;;10.77;77.85
23953;BME280;12163;49.316;6.092;2023-04-22T03:03:24;98537.09;;;10.77;77.85
23953;BME280;12163;49.316;6.092;2023-04-22T03:05:52;98542.00;;;10.75;77.54
23953;BME280;12163;49.316;6.092;2023-04-22T03:08:18;98541.03;;;10.71;77.44
23953;BME280;12163;49.316;6.092;2023-04-22T03:10:45;98540.06;;;10.67;77.60
23953;BME280;12163;49.316;6.092;2023-04-22T03:13:12;98541.47;;;10.64;77.96
23953;BME280;12163;49.316;6.092;2023-04-22T03:15:40;98536.06;;;10.64;77.83
23953;BME280;12163;49.316;6.092;2023-04-22T03:18:07;98526.06;;;10.65;78.15
23953;BME280;12163;49.316;6.092;2023-04-22T03:20:34;98539.75;;;10.68;78.70
23953;BME280;12163;49.316;6.092;2023-04-22T03:23:01;98531.84;;;10.72;78.06
23953;BME280;12163;49.316;6.092;2023-04-22T03:25:28;98532.63;;;10.72;78.16
23953;BME280;12163;49.316;6.092;2023-04-22T03:27:54;98536.13;;;10.73;78.07
23953;BME280;12163;49.316;6.092;2023-04-22T03:30:21;98521.34;;;10.70;77.97
23953;BME280;12163;49.316;6.092;2023-04-22T03:32:48;98529.13;;;10.72;78.39
23953;BME280;12163;49.316;6.092;2023-04-22T03:35:14;98528.31;;;10.71;78.30
23953;BME280;12163;49.316;6.092;2023-04-22T03:37:41;98531.34;;;10.70;78.14
23953;BME280;12163;49.316;6.092;2023-04-22T03:40:08;98536.25;;;10.68;78.63
23953;BME280;12163;49.316;6.092;2023-04-22T03:42:35;98546.25;;;10.67;78.47
23953;BME280;12163;49.316;6.092;2023-04-22T03:45:02;98539.06;;;10.63;78.77
23953;BME280;12163;49.316;6.092;2023-04-22T03:47:28;98542.38;;;10.60;78.45
23953;BME280;12163;49.316;6.092;2023-04-22T03:49:55;98558.09;;;10.58;78.61
23953;BME280;12163;49.316;6.092;2023-04-22T03:52:22;98559.81;;;10.54;78.74
23953;BME280;12163;49.316;6.092;2023-04-22T03:54:48;98561.22;;;10.51;79.11
23953;BME280;12163;49.316;6.092;2023-04-22T03:57:15;98547.88;;;10.46;78.52
23953;BME280;12163;49.316;6.092;2023-04-22T03:59:42;98546.28;;;10.45;78.93
23953;BME280;12163;49.316;6.092;2023-04-22T04:02:08;98543.09;;;10.43;78.88
23953;BME280;12163;49.316;6.092;2023-04-22T04:04:35;98546.09;;;10.42;79.24
23953;BME280;12163;49.316;6.092;2023-04-22T04:07:02;98539.72;;;10.38;78.47
23953;BME280;12163;49.316;6.092;2023-04-22T04:09:29;98540.66;;;10.33;78.80
23953;BME280;12163;49.316;6.092;2023-04-22T04:11:55;98546.16;;;10.28;78.82
23953;BME280;12163;49.316;6.092;2023-04-22T04:14:23;98542.81;;;10.23;78.88
23953;BME280;12163;49.316;6.092;2023-04-22T04:16:50;98545.59;;;10.18;78.75
23953;BME280;12163;49.316;6.092;2023-04-22T04:19:16;98544.16;;;10.12;78.99
23953;BME280;12163;49.316;6.092;2023-04-22T04:21:43;98543.66;;;10.10;79.13
23953;BME280;12163;49.316;6.092;2023-04-22T04:24:10;98534.28;;;10.07;79.12
23953;BME280;12163;49.316;6.092;2023-04-22T04:26:37;98537.28;;;10.06;79.46
23953;BME280;12163;49.316;6.092;2023-04-22T04:29:04;98531.09;;;10.05;79.75
23953;BME280;12163;49.316;6.092;2023-04-22T04:31:31;98516.50;;;10.06;79.49
23953;BME280;12163;49.316;6.092;2023-04-22T04:33:59;98519.53;;;10.05;79.43
23953;BME280;12163;49.316;6.092;2023-04-22T04:36:26;98529.00;;;10.02;79.51
23953;BME280;12163;49.316;6.092;2023-04-22T04:38:54;98527.13;;;10.03;79.29
23953;BME280;12163;49.316;6.092;2023-04-22T04:41:21;98536.31;;;10.02;79.45
23953;BME280;12163;49.316;6.092;2023-04-22T04:43:48;98534.09;;;10.04;79.21
23953;BME280;12163;49.316;6.092;2023-04-22T04:46:15;98531.91;;;10.06;79.42
23953;BME280;12163;49.316;6.092;2023-04-22T04:48:42;98538.25;;;10.10;79.09
23953;BME280;12163;49.316;6.092;2023-04-22T04:51:09;98541.25;;;10.08;79.56
23953;BME280;12163;49.316;6.092;2023-04-22T04:53:36;98537.72;;;10.21;79.91
23953;BME280;12163;49.316;6.092;2023-04-22T04:56:03;98525.78;;;10.66;79.76
23953;BME280;12163;49.316;6.092;2023-04-22T04:58:30;98531.97;;;11.06;78.66
23953;BME280;12163;49.316;6.092;2023-04-22T05:00:56;98532.06;;;11.40;77.08
23953;BME280;12163;49.316;6.092;2023-04-22T05:03:23;98529.59;;;11.69;75.96
23953;BME280;12163;49.316;6.092;2023-04-22T05:05:50;98533.28;;;11.89;74.96
23953;BME280;12163;49.316;6.092;2023-04-22T05:08:17;98538.22;;;12.13;74.16
23953;BME280;12163;49.316;6.092;2023-04-22T05:10:43;98541.06;;;12.25;73.96
23953;BME280;12163;49.316;6.092;2023-04-22T05:13:10;98540.91;;;12.21;72.65
23953;BME280;12163;49.316;6.092;2023-04-22T05:15:36;98542.81;;;12.12;72.57
23953;BME280;12163;49.316;6.092;2023-04-22T05:18:04;98536.94;;;12.02;73.28
23953;BME280;12163;49.316;6.092;2023-04-22T05:20:31;98539.63;;;11.93;73.91
23953;BME280;12163;49.316;6.092;2023-04-22T05:23:01;98542.50;;;11.88;73.53
23953;BME280;12163;49.316;6.092;2023-04-22T05:25:28;98545.19;;;11.80;74.09
23953;BME280;12163;49.316;6.092;2023-04-22T05:27:54;98544.88;;;11.73;74.54
23953;BME280;12163;49.316;6.092;2023-04-22T05:30:21;98542.50;;;11.88;74.07
23953;BME280;12163;49.316;6.092;2023-04-22T05:32:47;98539.97;;;12.00;73.75
23953;BME280;12163;49.316;6.092;2023-04-22T05:35:14;98548.88;;;12.09;73.99
23953;BME280;12163;49.316;6.092;2023-04-22T05:37:41;98546.00;;;12.14;74.37
23953;BME280;12163;49.316;6.092;2023-04-22T05:40:08;98544.56;;;12.17;74.33
23953;BME280;12163;49.316;6.092;2023-04-22T05:42:34;98554.91;;;12.23;73.52
23953;BME280;12163;49.316;6.092;2023-04-22T05:45:01;98551.09;;;12.33;73.72
23953;BME280;12163;49.316;6.092;2023-04-22T05:47:28;98552.63;;;12.42;73.52
23953;BME280;12163;49.316;6.092;2023-04-22T05:49:55;98548.66;;;12.57;73.35
23953;BME280;12163;49.316;6.092;2023-04-22T05:52:22;98553.22;;;12.73;73.31
23953;BME280;12163;49.316;6.092;2023-04-22T05:54:48;98558.94;;;12.80;72.72
23953;BME280;12163;49.316;6.092;2023-04-22T05:57:15;98549.38;;;12.83;72.30
23953;BME280;12163;49.316;6.092;2023-04-22T05:59:41;98549.84;;;12.85;71.55
23953;BME280;12163;49.316;6.092;2023-04-22T06:02:08;98553.50;;;12.89;71.54
23953;BME280;12163;49.316;6.092;2023-04-22T06:04:35;98550.59;;;13.02;71.45
23953;BME280;12163;49.316;6.092;2023-04-22T06:07:03;98557.59;;;13.03;71.35
23953;BME280;12163;49.316;6.092;2023-04-22T06:09:30;98553.78;;;13.04;70.99
23953;BME280;12163;49.316;6.092;2023-04-22T06:11:56;98556.66;;;13.08;70.24
23953;BME280;12163;49.316;6.092;2023-04-22T06:14:23;98563.81;;;13.12;70.17
23953;BME280;12163;49.316;6.092;2023-04-22T06:16:50;98560.56;;;13.19;69.68
23953;BME280;12163;49.316;6.092;2023-04-22T06:19:18;98563.72;;;13.29;69.30
23953;BME280;12163;49.316;6.092;2023-04-22T06:21:45;98568.31;;;13.37;69.19
23953;BME280;12163;49.316;6.092;2023-04-22T06:24:11;98553.59;;;13.47;68.61
23953;BME280;12163;49.316;6.092;2023-04-22T06:26:38;98549.72;;;13.56;68.43
23953;BME280;12163;49.316;6.092;2023-04-22T06:29:04;98549.97;;;13.63;67.67
23953;BME280;12163;49.316;6.092;2023-04-22T06:31:31;98547.53;;;13.70;67.78
23953;BME280;12163;49.316;6.092;2023-04-22T06:33:58;98547.84;;;13.77;67.01
23953;BME280;12163;49.316;6.092;2023-04-22T06:36:25;98556.22;;;13.84;66.99
23953;BME280;12163;49.316;6.092;2023-04-22T06:38:55;98557.16;;;13.88;66.74
23953;BME280;12163;49.316;6.092;2023-04-22T06:41:22;98558.22;;;13.95;66.56
23953;BME280;12163;49.316;6.092;2023-04-22T06:43:49;98546.94;;;14.05;66.60
23953;BME280;12163;49.316;6.092;2023-04-22T06:46:16;98548.00;;;14.13;66.00
23953;BME280;12163;49.316;6.092;2023-04-22T06:48:43;98555.19;;;14.17;66.12
23953;BME280;12163;49.316;6.092;2023-04-22T06:51:09;98551.59;;;14.25;65.46
23953;BME280;12163;49.316;6.092;2023-04-22T06:53:36;98551.41;;;14.30;65.11
23953;BME280;12163;49.316;6.092;2023-04-22T06:56:03;98561.25;;;14.35;65.86
23953;BME280;12163;49.316;6.092;2023-04-22T06:58:30;98547.03;;;14.38;65.19
23953;BME280;12163;49.316;6.092;2023-04-22T07:00:56;98554.63;;;14.44;64.61
23953;BME280;12163;49.316;6.092;2023-04-22T07:03:24;98555.81;;;14.55;62.97
23953;BME280;12163;49.316;6.092;2023-04-22T07:05:51;98545.31;;;14.66;62.14
23953;BME280;12163;49.316;6.092;2023-04-22T07:08:18;98549.50;;;14.75;61.04
23953;BME280;12163;49.316;6.092;2023-04-22T07:10:45;98551.34;;;14.83;59.90
23953;BME280;12163;49.316;6.092;2023-04-22T07:13:11;98545.47;;;14.93;59.21
23953;BME280;12163;49.316;6.092;2023-04-22T07:15:38;98544.25;;;15.03;58.57
23953;BME280;12163;49.316;6.092;2023-04-22T07:18:04;98545.88;;;15.16;58.73
23953;BME280;12163;49.316;6.092;2023-04-22T07:20:31;98540.25;;;15.32;58.68
23953;BME280;12163;49.316;6.092;2023-04-22T07:22:58;98542.03;;;15.52;57.88
23953;BME280;12163;49.316;6.092;2023-04-22T07:25:24;98540.31;;;15.72;56.87
23953;BME280;12163;49.316;6.092;2023-04-22T07:27:51;98542.44;;;15.90;56.50
23953;BME280;12163;49.316;6.092;2023-04-22T07:30:17;98540.13;;;16.04;55.88
23953;BME280;12163;49.316;6.092;2023-04-22T07:32:44;98540.19;;;16.20;55.03
23953;BME280;12163;49.316;6.092;2023-04-22T07:35:14;98537.78;;;16.30;54.16
23953;BME280;12163;49.316;6.092;2023-04-22T07:37:40;98546.97;;;16.38;53.72
23953;BME280;12163;49.316;6.092;2023-04-22T07:40:07;98533.91;;;16.43;53.22
23953;BME280;12163;49.316;6.092;2023-04-22T07:42:38;98537.84;;;16.46;52.82
23953;BME280;12163;49.316;6.092;2023-04-22T07:45:05;98549.53;;;16.46;52.80
23953;BME280;12163;49.316;6.092;2023-04-22T07:47:32;98558.72;;;16.54;52.87
23953;BME280;12163;49.316;6.092;2023-04-22T07:49:59;98551.94;;;16.63;52.31
23953;BME280;12163;49.316;6.092;2023-04-22T07:52:26;98555.88;;;16.78;51.43
23953;BME280;12163;49.316;6.092;2023-04-22T07:54:52;98558.22;;;16.94;51.90
23953;BME280;12163;49.316;6.092;2023-04-22T07:57:19;98558.44;;;17.17;50.58
23953;BME280;12163;49.316;6.092;2023-04-22T07:59:48;98548.09;;;17.38;50.05
23953;BME280;12163;49.316;6.092;2023-04-22T08:02:15;98554.31;;;17.54;48.02
23953;BME280;12163;49.316;6.092;2023-04-22T08:04:41;98558.53;;;17.67;47.11
23953;BME280;12163;49.316;6.092;2023-04-22T08:07:08;98569.16;;;17.72;48.18
23953;BME280;12163;49.316;6.092;2023-04-22T08:09:55;98564.22;;;17.77;46.75
23953;BME280;12163;49.316;6.092;2023-04-22T08:12:22;98557.81;;;17.70;46.28
23953;BME280;12163;49.316;6.092;2023-04-22T08:14:49;98558.94;;;17.69;45.74
23953;BME280;12163;49.316;6.092;2023-04-22T08:17:16;98557.81;;;17.70;46.83
23953;BME280;12163;49.316;6.092;2023-04-22T08:19:47;98563.88;;;17.79;46.73
23953;BME280;12163;49.316;6.092;2023-04-22T08:22:14;98558.41;;;17.79;46.07
23953;BME280;12163;49.316;6.092;2023-04-22T08:24:41;98570.91;;;17.80;45.89
23953;BME280;12163;49.316;6.092;2023-04-22T08:27:08;98557.28;;;17.80;45.36
23953;BME280;12163;49.316;6.092;2023-04-22T08:29:34;98572.13;;;17.82;45.69
23953;BME280;12163;49.316;6.092;2023-04-22T08:32:01;98572.31;;;17.89;44.92
23953;BME280;12163;49.316;6.092;2023-04-22T08:34:28;98553.69;;;17.95;45.36
23953;BME280;12163;49.316;6.092;2023-04-22T08:36:54;98558.91;;;18.00;46.26
23953;BME280;12163;49.316;6.092;2023-04-22T08:39:21;98563.00;;;18.09;44.90
23953;BME280;12163;49.316;6.092;2023-04-22T08:41:49;98554.75;;;18.25;44.03
23953;BME280;12163;49.316;6.092;2023-04-22T08:44:16;98569.84;;;18.38;44.48
23953;BME280;12163;49.316;6.092;2023-04-22T08:46:43;98559.88;;;18.45;43.66
23953;BME280;12163;49.316;6.092;2023-04-22T08:49:15;98554.50;;;18.49;43.83
23953;BME280;12163;49.316;6.092;2023-04-22T08:51:43;98561.78;;;18.64;44.22
23953;BME280;12163;49.316;6.092;2023-04-22T08:54:10;98561.41;;;18.84;43.33
23953;BME280;12163;49.316;6.092;2023-04-22T08:56:41;98558.88;;;18.94;42.90
23953;BME280;12163;49.316;6.092;2023-04-22T08:59:10;98561.44;;;19.06;42.65
23953;BME280;12163;49.316;6.092;2023-04-22T09:01:38;98558.31;;;19.27;42.90
23953;BME280;12163;49.316;6.092;2023-04-22T09:04:08;98550.06;;;19.49;42.75
23953;BME280;12163;49.316;6.092;2023-04-22T09:06:37;98548.41;;;19.67;41.39
23953;BME280;12163;49.316;6.092;2023-04-22T09:09:04;98551.69;;;19.76;41.99
23953;BME280;12163;49.316;6.092;2023-04-22T09:11:32;98556.09;;;19.84;42.03
23953;BME280;12163;49.316;6.092;2023-04-22T09:13:59;98546.72;;;19.85;42.11
23953;BME280;12163;49.316;6.092;2023-04-22T09:16:25;98551.38;;;19.81;42.18
23953;BME280;12163;49.316;6.092;2023-04-22T09:18:52;98561.84;;;19.76;41.34
23953;BME280;12163;49.316;6.092;2023-04-22T09:21:18;98559.25;;;19.60;42.30
23953;BME280;12163;49.316;6.092;2023-04-22T09:23:50;98553.06;;;19.41;41.97
23953;BME280;12163;49.316;6.092;2023-04-22T09:26:24;98559.81;;;19.24;42.78
23953;BME280;12163;49.316;6.092;2023-04-22T09:28:53;98561.19;;;19.15;43.05
23953;BME280;12163;49.316;6.092;2023-04-22T09:31:22;98564.97;;;19.07;43.25
23953;BME280;12163;49.316;6.092;2023-04-22T09:33:57;98560.03;;;18.93;42.81
23953;BME280;12163;49.316;6.092;2023-04-22T09:36:27;98569.97;;;18.82;43.82
23953;BME280;12163;49.316;6.092;2023-04-22T09:38:56;98584.66;;;18.74;43.58
23953;BME280;12163;49.316;6.092;2023-04-22T09:41:36;98585.25;;;18.65;44.03
23953;BME280;12163;49.316;6.092;2023-04-22T09:44:13;98585.81;;;18.55;44.19
23953;BME280;12163;49.316;6.092;2023-04-22T09:46:42;98584.97;;;18.51;44.46
23953;BME280;12163;49.316;6.092;2023-04-22T09:49:09;98581.66;;;18.61;45.21
23953;BME280;12163;49.316;6.092;2023-04-22T09:51:39;98589.31;;;18.74;44.91
23953;BME280;12163;49.316;6.092;2023-04-22T09:54:07;98576.66;;;18.85;44.81
23953;BME280;12163;49.316;6.092;2023-04-22T09:59:18;98582.16;;;19.07;44.22
23953;BME280;12163;49.316;6.092;2023-04-22T10:01:45;98584.75;;;19.19;44.56
23953;BME280;12163;49.316;6.092;2023-04-22T10:04:12;98588.03;;;19.28;44.34
23953;BME280;12163;49.316;6.092;2023-04-22T10:06:42;98582.13;;;19.26;44.47
23953;BME280;12163;49.316;6.092;2023-04-22T10:09:09;98580.25;;;19.30;44.89
23953;BME280;12163;49.316;6.092;2023-04-22T10:11:36;98589.38;;;19.38;45.26
23953;BME280;12163;49.316;6.092;2023-04-22T10:14:03;98582.50;;;19.47;44.94
23953;BME280;12163;49.316;6.092;2023-04-22T10:16:32;98592.41;;;19.55;45.65
23953;BME280;12163;49.316;6.092;2023-04-22T10:19:02;98595.44;;;19.50;45.65
23953;BME280;12163;49.316;6.092;2023-04-22T10:21:30;98595.03;;;19.26;45.45
23953;BME280;12163;49.316;6.092;2023-04-22T10:23:59;98596.84;;;18.99;46.68
23953;BME280;12163;49.316;6.092;2023-04-22T10:26:39;98598.75;;;18.76;47.24
23953;BME280;12163;49.316;6.092;2023-04-22T10:29:07;98604.81;;;18.67;47.61
23953;BME280;12163;49.316;6.092;2023-04-22T10:31:38;98605.97;;;18.47;48.46
23953;BME280;12163;49.316;6.092;2023-04-22T10:34:12;98608.69;;;18.28;49.29
23953;BME280;12163;49.316;6.092;2023-04-22T10:39:19;98603.53;;;17.92;49.93
23953;BME280;12163;49.316;6.092;2023-04-22T10:41:56;98613.59;;;17.88;50.02
23953;BME280;12163;49.316;6.092;2023-04-22T10:44:27;98608.47;;;17.86;50.16
23953;BME280;12163;49.316;6.092;2023-04-22T10:46:55;98624.97;;;17.74;51.10
23953;BME280;12163;49.316;6.092;2023-04-22T10:49:24;98608.63;;;17.59;51.37
23953;BME280;12163;49.316;6.092;2023-04-22T10:51:52;98615.66;;;17.44;51.88
23953;BME280;12163;49.316;6.092;2023-04-22T10:57:09;98612.41;;;17.39;54.19
23953;BME280;12163;49.316;6.092;2023-04-22T10:59:46;98614.25;;;17.35;54.77
23953;BME280;12163;49.316;6.092;2023-04-22T11:02:16;98602.38;;;17.43;56.21
23953;BME280;12163;49.316;6.092;2023-04-22T11:04:43;98611.41;;;17.47;56.78
23953;BME280;12163;49.316;6.092;2023-04-22T11:09:58;98620.84;;;17.49;57.50
23953;BME280;12163;49.316;6.092;2023-04-22T11:15:04;98611.78;;;17.61;58.35
23953;BME280;12163;49.316;6.092;2023-04-22T11:17:31;98606.91;;;17.70;58.36
23953;BME280;12163;49.316;6.092;2023-04-22T11:19:58;98611.56;;;17.85;59.36
23953;BME280;12163;49.316;6.092;2023-04-22T11:22:25;98618.50;;;17.98;59.46
23953;BME280;12163;49.316;6.092;2023-04-22T11:24:56;98621.19;;;18.13;59.39
23953;BME280;12163;49.316;6.092;2023-04-22T11:27:23;98622.75;;;18.30;58.07
23953;BME280;12163;49.316;6.092;2023-04-22T11:30:03;98627.00;;;18.46;59.10
23953;BME280;12163;49.316;6.092;2023-04-22T11:32:30;98617.16;;;18.61;58.10
23953;BME280;12163;49.316;6.092;2023-04-22T11:34:57;98619.38;;;18.74;56.49
23953;BME280;12163;49.316;6.092;2023-04-22T11:37:24;98618.53;;;18.89;56.22
23953;BME280;12163;49.316;6.092;2023-04-22T11:39:50;98618.84;;;19.06;55.86
23953;BME280;12163;49.316;6.092;2023-04-22T11:42:37;98614.09;;;19.22;54.90
23953;BME280;12163;49.316;6.092;2023-04-22T11:45:06;98608.47;;;19.34;55.88
23953;BME280;12163;49.316;6.092;2023-04-22T11:47:33;98614.31;;;19.55;54.81
23953;BME280;12163;49.316;6.092;2023-04-22T11:50:03;98606.63;;;19.64;53.52
23953;BME280;12163;49.316;6.092;2023-04-22T12:00:31;98605.38;;;19.84;51.74
23953;BME280;12163;49.316;6.092;2023-04-22T12:05:43;98613.38;;;19.96;50.91
23953;BME280;12163;49.316;6.092;2023-04-22T12:08:14;98614.94;;;19.97;50.84
23953;BME280;12163;49.316;6.092;2023-04-22T12:10:46;98607.31;;;20.06;51.51
23953;BME280;12163;49.316;6.092;2023-04-22T12:13:29;98610.38;;;20.01;51.49
23953;BME280;12163;49.316;6.092;2023-04-22T12:18:35;98611.63;;;20.07;51.41
23953;BME280;12163;49.316;6.092;2023-04-22T12:23:46;98586.31;;;20.47;49.97
23953;BME280;12163;49.316;6.092;2023-04-22T12:26:15;98595.56;;;20.64;49.89
23953;BME280;12163;49.316;6.092;2023-04-22T12:28:42;98598.00;;;20.73;49.71
23953;BME280;12163;49.316;6.092;2023-04-22T12:31:10;98598.56;;;20.85;49.73
23953;BME280;12163;49.316;6.092;2023-04-22T12:33:37;98612.34;;;20.89;49.01
23953;BME280;12163;49.316;6.092;2023-04-22T12:36:04;98610.31;;;20.86;49.12
23953;BME280;12163;49.316;6.092;2023-04-22T12:38:31;98602.84;;;20.83;48.57
23953;BME280;12163;49.316;6.092;2023-04-22T12:40:58;98613.63;;;20.69;49.20
23953;BME280;12163;49.316;6.092;2023-04-22T12:43:25;98601.66;;;20.51;48.82
23953;BME280;12163;49.316;6.092;2023-04-22T12:45:51;98607.28;;;20.32;49.95
23953;BME280;12163;49.316;6.092;2023-04-22T12:48:18;98598.03;;;20.14;50.97
23953;BME280;12163;49.316;6.092;2023-04-22T12:50:45;98605.59;;;19.98;51.78
23953;BME280;12163;49.316;6.092;2023-04-22T12:53:11;98594.78;;;19.83;52.96
23953;BME280;12163;49.316;6.092;2023-04-22T12:55:38;98601.91;;;19.87;52.75
23953;BME280;12163;49.316;6.092;2023-04-22T12:58:05;98591.63;;;20.03;51.61
23953;BME280;12163;49.316;6.092;2023-04-22T13:00:31;98590.97;;;20.13;52.04
23953;BME280;12163;49.316;6.092;2023-04-22T13:02:58;98585.03;;;20.37;52.01
23953;BME280;12163;49.316;6.092;2023-04-22T13:05:25;98579.47;;;20.63;51.31
23953;BME280;12163;49.316;6.092;2023-04-22T13:07:52;98573.03;;;20.81;50.19
23953;BME280;12163;49.316;6.092;2023-04-22T13:10:32;98576.34;;;20.94;49.33
23953;BME280;12163;49.316;6.092;2023-04-22T13:12:58;98577.88;;;20.91;49.78
23953;BME280;12163;49.316;6.092;2023-04-22T13:15:41;98591.63;;;20.95;49.47
23953;BME280;12163;49.316;6.092;2023-04-22T13:18:07;98588.81;;;20.88;49.56
23953;BME280;12163;49.316;6.092;2023-04-22T13:20:34;98582.50;;;20.84;49.33
23953;BME280;12163;49.316;6.092;2023-04-22T13:23:01;98583.97;;;20.78;49.32
23953;BME280;12163;49.316;6.092;2023-04-22T13:25:30;98595.84;;;20.56;49.75
23953;BME280;12163;49.316;6.092;2023-04-22T13:27:57;98591.19;;;20.31;49.93
23953;BME280;12163;49.316;6.092;2023-04-22T13:30:23;98588.13;;;20.06;50.72
23953;BME280;12163;49.316;6.092;2023-04-22T13:32:50;98584.81;;;19.97;51.29